TimeCDT,TemperatureF,Dew PointF,Humidity,Sea Level PressureIn,VisibilityMPH,Wind Direction,Wind SpeedMPH,Gust SpeedMPH,PrecipitationIn,Events,Conditions,WindDirDegrees,DateUTC
12:15 AM,79.3,69.3,71,30.03,10.0,WSW,6.9,-,N/A,,Scattered Clouds,250,2013-09-11 05:15:00
12:35 AM,75.7,68.0,77,30.01,10.0,SSW,9.2,-,N/A,,Scattered Clouds,200,2013-09-11 05:35:00
12:55 AM,77.0,68.2,74,30.01,10.0,SSW,10.4,-,N/A,,Clear,200,2013-09-11 05:55:00
1:15 AM,78.1,67.8,71,30.01,10.0,SSW,10.4,-,N/A,,Clear,210,2013-09-11 06:15:00
1:35 AM,77.0,66.7,70,30.01,10.0,SW,8.1,-,N/A,,Clear,230,2013-09-11 06:35:00
1:55 AM,77.0,66.6,70,30.02,10.0,West,6.9,-,N/A,,Clear,260,2013-09-11 06:55:00
2:15 AM,74.3,65.7,74,30.01,10.0,WSW,5.8,-,N/A,,Clear,250,2013-09-11 07:15:00
2:35 AM,74.3,65.3,73,30.02,10.0,WSW,6.9,-,N/A,,Clear,240,2013-09-11 07:35:00
2:55 AM,74.3,65.3,73,30.03,10.0,SW,6.9,-,N/A,,Clear,230,2013-09-11 07:55:00
3:15 AM,74.3,65.3,73,30.03,10.0,WSW,5.8,-,N/A,,Clear,240,2013-09-11 08:15:00
3:35 AM,74.3,66.9,78,30.03,10.0,WSW,4.6,-,N/A,,Clear,240,2013-09-11 08:35:00
3:55 AM,74.3,67.8,80,30.04,10.0,WSW,4.6,-,N/A,,Clear,240,2013-09-11 08:55:00
4:15 AM,74.3,68.0,81,30.03,10.0,WSW,4.6,-,N/A,,Clear,240,2013-09-11 09:15:00
4:35 AM,71.8,65.8,81,30.03,10.0,WSW,4.6,-,N/A,,Clear,240,2013-09-11 09:35:00
4:55 AM,71.8,65.7,81,30.03,10.0,West,4.6,-,N/A,,Clear,260,2013-09-11 09:55:00
5:15 AM,71.8,65.7,81,30.03,10.0,Calm,Calm,-,N/A,,Clear,0,2013-09-11 10:15:00
5:35 AM,69.3,64.8,86,30.04,10.0,WNW,3.5,-,N/A,,Clear,290,2013-09-11 10:35:00
5:55 AM,68.4,64.0,86,30.04,10.0,Calm,Calm,-,N/A,,Clear,0,2013-09-11 10:55:00
6:15 AM,69.3,64.8,86,30.05,10.0,Calm,Calm,-,N/A,,Clear,0,2013-09-11 11:15:00
6:35 AM,68.2,64.6,88,30.08,10.0,NW,10.4,-,N/A,,Clear,320,2013-09-11 11:35:00
6:55 AM,71.8,67.5,86,30.09,10.0,NNW,5.8,-,N/A,,Clear,340,2013-09-11 11:55:00
7:15 AM,71.8,67.1,85,30.10,10.0,North,6.9,-,N/A,,Clear,350,2013-09-11 12:15:00
7:35 AM,74.1,68.7,83,30.09,10.0,North,3.5,-,N/A,,Clear,10,2013-09-11 12:35:00
7:55 AM,73.8,68.4,83,30.09,10.0,NE,3.5,-,N/A,,Clear,40,2013-09-11 12:55:00
8:15 AM,74.1,68.9,84,30.09,10.0,Calm,Calm,-,N/A,,Clear,0,2013-09-11 13:15:00
8:35 AM,74.3,67.3,79,30.08,10.0,East,5.8,-,N/A,,Scattered Clouds,100,2013-09-11 13:35:00
8:55 AM,76.8,67.8,74,30.07,10.0,East,5.8,-,N/A,,Clear,80,2013-09-11 13:55:00
9:15 AM,78.1,68.4,72,30.07,10.0,East,6.9,-,N/A,,Scattered Clouds,90,2013-09-11 14:15:00
9:35 AM,79.3,69.4,72,30.07,10.0,ESE,4.6,-,N/A,,Scattered Clouds,110,2013-09-11 14:35:00
9:55 AM,79.3,67.5,67,30.08,10.0,ESE,3.5,-,N/A,,Clear,120,2013-09-11 14:55:00
10:15 AM,79.3,66.4,64,30.08,10.0,Calm,Calm,-,N/A,,Clear,0,2013-09-11 15:15:00
10:35 AM,79.3,66.9,66,30.09,10.0,Calm,Calm,-,N/A,,Scattered Clouds,0,2013-09-11 15:35:00
10:55 AM,81.0,68.4,65,30.09,10.0,Calm,Calm,-,N/A,,Clear,0,2013-09-11 15:55:00
11:15 AM,81.5,68.5,65,30.09,10.0,South,4.6,-,N/A,,Clear,180,2013-09-11 16:15:00
11:35 AM,81.9,68.9,65,30.09,10.0,NW,4.6,-,N/A,,Clear,310,2013-09-11 16:35:00
11:55 AM,79.3,70.2,73,30.10,10.0,WNW,5.8,-,N/A,Rain,Light Rain,300,2013-09-11 16:55:00
12:15 PM,76.1,71.2,85,30.10,10.0,North,5.8,-,0.02,,Scattered Clouds,350,2013-09-11 17:15:00
12:35 PM,77.0,71.6,83,30.09,10.0,North,3.5,-,0.02,,Clear,350,2013-09-11 17:35:00
12:55 PM,77.0,71.2,82,30.09,10.0,WNW,3.5,-,0.02,,Clear,300,2013-09-11 17:55:00
1:15 PM,77.0,71.6,83,30.10,10.0,West,3.5,-,N/A,Rain,Light Rain,270,2013-09-11 18:15:00
1:35 PM,75.6,70.7,85,30.09,10.0,West,3.5,-,N/A,,Scattered Clouds,260,2013-09-11 18:35:00
1:55 PM,77.0,71.2,82,30.08,10.0,Calm,Calm,-,N/A,,Scattered Clouds,0,2013-09-11 18:55:00
2:15 PM,77.2,71.1,81,30.07,10.0,West,3.5,-,N/A,,Mostly Cloudy,280,2013-09-11 19:15:00
2:35 PM,79.3,72.7,80,30.07,10.0,West,3.5,-,N/A,,Scattered Clouds,260,2013-09-11 19:35:00
2:55 PM,79.3,70.5,74,30.07,10.0,West,5.8,-,N/A,,Clear,260,2013-09-11 19:55:00
3:15 PM,79.3,70.5,74,30.06,10.0,West,5.8,-,N/A,,Clear,270,2013-09-11 20:15:00
3:35 PM,81.5,70.7,70,30.06,10.0,WSW,8.1,-,N/A,,Clear,240,2013-09-11 20:35:00
3:55 PM,82.8,68.4,62,30.05,10.0,West,8.1,-,N/A,,Clear,270,2013-09-11 20:55:00
4:15 PM,82.0,66.9,60,30.06,10.0,West,10.4,-,N/A,,Clear,270,2013-09-11 21:15:00
4:35 PM,81.9,66.9,60,30.05,10.0,West,6.9,-,N/A,,Clear,270,2013-09-11 21:35:00
4:55 PM,82.0,67.3,61,30.05,10.0,West,9.2,-,N/A,,Clear,260,2013-09-11 21:55:00
5:15 PM,81.9,67.3,61,30.05,10.0,West,9.2,-,N/A,,Scattered Clouds,260,2013-09-11 22:15:00
5:35 PM,81.9,68.7,64,30.05,10.0,West,4.6,-,N/A,,Mostly Cloudy,260,2013-09-11 22:35:00
5:55 PM,81.9,68.9,65,30.05,10.0,West,5.8,-,N/A,,Scattered Clouds,260,2013-09-11 22:55:00
6:15 PM,80.8,68.9,67,30.04,10.0,WSW,5.8,-,N/A,,Scattered Clouds,250,2013-09-11 23:15:00
6:35 PM,79.3,68.2,69,30.04,10.0,WSW,3.5,-,N/A,,Mostly Cloudy,250,2013-09-11 23:35:00
6:55 PM,79.3,68.5,69,30.04,10.0,WNW,4.6,-,N/A,,Mostly Cloudy,290,2013-09-11 23:55:00
7:15 PM,79.3,70.9,75,30.04,10.0,WNW,4.6,-,N/A,,Mostly Cloudy,290,2013-09-12 00:15:00
7:35 PM,77.0,68.2,74,30.04,10.0,WNW,3.5,-,N/A,,Scattered Clouds,290,2013-09-12 00:35:00
7:55 PM,77.0,67.6,73,30.04,10.0,West,3.5,-,N/A,,Mostly Cloudy,270,2013-09-12 00:55:00
8:15 PM,75.0,66.9,76,30.04,10.0,Calm,Calm,-,N/A,,Scattered Clouds,0,2013-09-12 01:15:00
8:35 PM,74.3,68.9,83,30.04,10.0,Calm,Calm,-,N/A,,Clear,0,2013-09-12 01:35:00
8:55 PM,74.3,69.6,85,30.04,10.0,West,4.6,-,N/A,,Clear,260,2013-09-12 01:55:00
9:15 PM,74.3,68.5,82,30.04,10.0,West,4.6,-,N/A,,Clear,270,2013-09-12 02:15:00
9:35 PM,74.3,68.9,83,30.04,10.0,West,4.6,-,N/A,,Clear,260,2013-09-12 02:35:00
9:55 PM,71.8,66.7,84,30.05,10.0,West,4.6,-,N/A,,Clear,270,2013-09-12 02:55:00
10:15 PM,70.9,66.2,85,30.05,10.0,West,4.6,-,N/A,,Clear,280,2013-09-12 03:15:00
10:35 PM,69.3,64.6,85,30.04,10.0,West,4.6,-,N/A,,Clear,270,2013-09-12 03:35:00
10:55 PM,69.3,64.6,85,30.04,10.0,WSW,4.6,-,N/A,,Clear,250,2013-09-12 03:55:00
11:15 PM,69.3,65.3,87,30.04,10.0,West,5.8,-,N/A,,Clear,260,2013-09-12 04:15:00
11:35 PM,69.3,64.8,86,30.04,10.0,West,5.8,-,N/A,,Clear,260,2013-09-12 04:35:00
11:55 PM,69.3,64.8,86,30.04,10.0,WSW,5.8,-,N/A,,Clear,250,2013-09-12 04:55:00